sensor_id;sensor_type;location;lat;lon;timestamp;temperature;humidity
9118;DHT22;4594;50.994;7.126;2023-08-01T00:00:51;19.00;80.10
9118;DHT22;4594;50.994;7.126;2023-08-01T00:03:17;19.00;80.00
9118;DHT22;4594;50.994;7.126;2023-08-01T00:05:43;19.00;79.80
9118;DHT22;4594;50.994;7.126;2023-08-01T00:08:13;19.10;79.80
9118;DHT22;4594;50.994;7.126;2023-08-01T00:10:40;19.00;79.50
9118;DHT22;4594;50.994;7.126;2023-08-01T00:13:06;19.00;79.70
9118;DHT22;4594;50.994;7.126;2023-08-01T00:15:33;19.10;79.90
9118;DHT22;4594;50.994;7.126;2023-08-01T00:17:59;19.00;79.90
9118;DHT22;4594;50.994;7.126;2023-08-01T00:20:25;19.00;79.90
9118;DHT22;4594;50.994;7.126;2023-08-01T00:22:51;19.10;80.20
9118;DHT22;4594;50.994;7.126;2023-08-01T00:25:17;19.10;80.20
9118;DHT22;4594;50.994;7.126;2023-08-01T00:27:43;19.10;80.40
9118;DHT22;4594;50.994;7.126;2023-08-01T00:30:09;19.10;80.20
9118;DHT22;4594;50.994;7.126;2023-08-01T00:32:36;19.10;80.20
9118;DHT22;4594;50.994;7.126;2023-08-01T00:35:03;19.10;80.00
9118;DHT22;4594;50.994;7.126;2023-08-01T00:37:29;19.10;79.90
9118;DHT22;4594;50.994;7.126;2023-08-01T00:39:55;19.10;80.00
9118;DHT22;4594;50.994;7.126;2023-08-01T00:42:21;19.10;80.30
9118;DHT22;4594;50.994;7.126;2023-08-01T00:44:47;19.10;80.70
9118;DHT22;4594;50.994;7.126;2023-08-01T00:47:14;19.20;80.70
9118;DHT22;4594;50.994;7.126;2023-08-01T00:49:42;19.20;80.60
9118;DHT22;4594;50.994;7.126;2023-08-01T00:52:08;19.20;80.40
9118;DHT22;4594;50.994;7.126;2023-08-01T00:54:35;19.20;80.60
9118;DHT22;4594;50.994;7.126;2023-08-01T00:57:05;19.20;80.70
9118;DHT22;4594;50.994;7.126;2023-08-01T00:59:32;19.20;80.70
9118;DHT22;4594;50.994;7.126;2023-08-01T01:01:59;19.20;81.10
9118;DHT22;4594;50.994;7.126;2023-08-01T01:04:25;19.20;81.20
9118;DHT22;4594;50.994;7.126;2023-08-01T01:06:58;19.20;81.10
9118;DHT22;4594;50.994;7.126;2023-08-01T01:09:29;19.20;80.80
9118;DHT22;4594;50.994;7.126;2023-08-01T01:11:59;19.20;81.00
9118;DHT22;4594;50.994;7.126;2023-08-01T01:14:28;19.30;81.20
9118;DHT22;4594;50.994;7.126;2023-08-01T01:16:54;19.30;81.00
9118;DHT22;4594;50.994;7.126;2023-08-01T01:19:20;19.30;81.10
9118;DHT22;4594;50.994;7.126;2023-08-01T01:21:47;19.30;81.20
9118;DHT22;4594;50.994;7.126;2023-08-01T01:24:14;19.30;81.10
9118;DHT22;4594;50.994;7.126;2023-08-01T01:26:41;19.30;81.20
9118;DHT22;4594;50.994;7.126;2023-08-01T01:29:09;19.30;81.00
9118;DHT22;4594;50.994;7.126;2023-08-01T01:31:36;19.30;81.00
9118;DHT22;4594;50.994;7.126;2023-08-01T01:34:03;19.20;80.90
9118;DHT22;4594;50.994;7.126;2023-08-01T01:36:29;19.30;81.10
9118;DHT22;4594;50.994;7.126;2023-08-01T01:38:56;19.30;81.50
9118;DHT22;4594;50.994;7.126;2023-08-01T01:41:21;19.30;81.80
9118;DHT22;4594;50.994;7.126;2023-08-01T01:43:48;19.30;82.00
9118;DHT22;4594;50.994;7.126;2023-08-01T01:46:14;19.30;82.20
9118;DHT22;4594;50.994;7.126;2023-08-01T01:48:40;19.30;82.30
9118;DHT22;4594;50.994;7.126;2023-08-01T01:51:07;19.30;82.30
9118;DHT22;4594;50.994;7.126;2023-08-01T01:53:33;19.40;82.40
9118;DHT22;4594;50.994;7.126;2023-08-01T01:55:59;19.40;82.30
9118;DHT22;4594;50.994;7.126;2023-08-01T01:58:24;19.40;82.30
9118;DHT22;4594;50.994;7.126;2023-08-01T02:00:50;19.40;82.30
9118;DHT22;4594;50.994;7.126;2023-08-01T02:03:16;19.40;82.40
9118;DHT22;4594;50.994;7.126;2023-08-01T02:05:41;19.40;82.40
9118;DHT22;4594;50.994;7.126;2023-08-01T02:08:07;19.40;82.40
9118;DHT22;4594;50.994;7.126;2023-08-01T02:10:33;19.40;82.20
9118;DHT22;4594;50.994;7.126;2023-08-01T02:12:59;19.40;82.10
9118;DHT22;4594;50.994;7.126;2023-08-01T02:15:24;19.50;82.10
9118;DHT22;4594;50.994;7.126;2023-08-01T02:17:50;19.40;81.80
9118;DHT22;4594;50.994;7.126;2023-08-01T02:20:16;19.40;81.50
9118;DHT22;4594;50.994;7.126;2023-08-01T02:22:42;19.40;81.30
9118;DHT22;4594;50.994;7.126;2023-08-01T02:25:07;19.40;81.30
9118;DHT22;4594;50.994;7.126;2023-08-01T02:27:33;19.40;81.30
9118;DHT22;4594;50.994;7.126;2023-08-01T02:29:59;19.40;81.30
9118;DHT22;4594;50.994;7.126;2023-08-01T02:32:25;19.50;81.40
9118;DHT22;4594;50.994;7.126;2023-08-01T02:34:50;19.40;81.30
9118;DHT22;4594;50.994;7.126;2023-08-01T02:37:16;19.40;81.20
9118;DHT22;4594;50.994;7.126;2023-08-01T02:39:41;19.40;81.10
9118;DHT22;4594;50.994;7.126;2023-08-01T02:42:07;19.40;81.10
9118;DHT22;4594;50.994;7.126;2023-08-01T02:44:33;19.40;81.10
9118;DHT22;4594;50.994;7.126;2023-08-01T02:46:59;19.40;81.20
9118;DHT22;4594;50.994;7.126;2023-08-01T02:49:25;19.50;81.20
9118;DHT22;4594;50.994;7.126;2023-08-01T02:51:51;19.40;80.70
9118;DHT22;4594;50.994;7.126;2023-08-01T02:54:16;19.40;80.40
9118;DHT22;4594;50.994;7.126;2023-08-01T02:56:42;19.40;80.20
9118;DHT22;4594;50.994;7.126;2023-08-01T02:59:08;19.40;80.00
9118;DHT22;4594;50.994;7.126;2023-08-01T03:01:35;19.40;79.80
9118;DHT22;4594;50.994;7.126;2023-08-01T03:04:05;19.30;79.50
9118;DHT22;4594;50.994;7.126;2023-08-01T03:06:37;19.30;79.10
9118;DHT22;4594;50.994;7.126;2023-08-01T03:09:03;19.40;79.50
9118;DHT22;4594;50.994;7.126;2023-08-01T03:11:32;19.30;79.40
9118;DHT22;4594;50.994;7.126;2023-08-01T03:14:02;19.30;79.40
9118;DHT22;4594;50.994;7.126;2023-08-01T03:16:30;19.20;79.30
9118;DHT22;4594;50.994;7.126;2023-08-01T03:18:56;19.20;79.40
9118;DHT22;4594;50.994;7.126;2023-08-01T03:21:22;19.20;79.90
9118;DHT22;4594;50.994;7.126;2023-08-01T03:23:47;19.20;79.70
9118;DHT22;4594;50.994;7.126;2023-08-01T03:26:13;19.20;79.80
9118;DHT22;4594;50.994;7.126;2023-08-01T03:28:40;19.20;79.80
9118;DHT22;4594;50.994;7.126;2023-08-01T03:31:06;19.20;79.70
9118;DHT22;4594;50.994;7.126;2023-08-01T03:33:32;19.20;79.70
9118;DHT22;4594;50.994;7.126;2023-08-01T03:35:59;19.20;79.80
9118;DHT22;4594;50.994;7.126;2023-08-01T03:38:24;19.20;79.60
9118;DHT22;4594;50.994;7.126;2023-08-01T03:40:50;19.10;79.40
9118;DHT22;4594;50.994;7.126;2023-08-01T03:43:16;19.10;79.20
9118;DHT22;4594;50.994;7.126;2023-08-01T03:45:41;19.20;79.20
9118;DHT22;4594;50.994;7.126;2023-08-01T03:48:07;19.10;78.90
9118;DHT22;4594;50.994;7.126;2023-08-01T03:50:33;19.10;78.70
9118;DHT22;4594;50.994;7.126;2023-08-01T03:52:58;19.10;78.50
9118;DHT22;4594;50.994;7.126;2023-08-01T03:55:24;19.10;78.30
9118;DHT22;4594;50.994;7.126;2023-08-01T03:57:50;19.00;78.10
9118;DHT22;4594;50.994;7.126;2023-08-01T04:00:15;19.00;78.10
9118;DHT22;4594;50.994;7.126;2023-08-01T04:02:43;19.00;77.90
9118;DHT22;4594;50.994;7.126;2023-08-01T04:05:09;19.00;77.90
9118;DHT22;4594;50.994;7.126;2023-08-01T04:07:36;18.90;77.70
9118;DHT22;4594;50.994;7.126;2023-08-01T04:10:03;18.90;77.70
9118;DHT22;4594;50.994;7.126;2023-08-01T04:12:32;18.90;77.70
9118;DHT22;4594;50.994;7.126;2023-08-01T04:14:59;18.90;77.80
9118;DHT22;4594;50.994;7.126;2023-08-01T04:17:26;18.80;77.80
9118;DHT22;4594;50.994;7.126;2023-08-01T04:19:52;20.00;79.10
9118;DHT22;4594;50.994;7.126;2023-08-01T04:22:18;18.90;77.90
9118;DHT22;4594;50.994;7.126;2023-08-01T04:24:44;18.80;77.90
9118;DHT22;4594;50.994;7.126;2023-08-01T04:27:09;18.80;77.80
9118;DHT22;4594;50.994;7.126;2023-08-01T04:29:35;18.70;77.50
9118;DHT22;4594;50.994;7.126;2023-08-01T04:32:01;18.70;77.30
9118;DHT22;4594;50.994;7.126;2023-08-01T04:34:26;18.70;77.30
9118;DHT22;4594;50.994;7.126;2023-08-01T04:36:52;18.70;77.50
9118;DHT22;4594;50.994;7.126;2023-08-01T04:39:18;18.60;77.60
9118;DHT22;4594;50.994;7.126;2023-08-01T04:41:43;18.70;77.90
9118;DHT22;4594;50.994;7.126;2023-08-01T04:44:09;18.70;77.90
9118;DHT22;4594;50.994;7.126;2023-08-01T04:46:34;18.60;77.90
9118;DHT22;4594;50.994;7.126;2023-08-01T04:49:00;18.60;77.70
9118;DHT22;4594;50.994;7.126;2023-08-01T04:51:26;18.60;77.70
9118;DHT22;4594;50.994;7.126;2023-08-01T04:53:52;18.70;77.80
9118;DHT22;4594;50.994;7.126;2023-08-01T04:56:17;18.60;77.70
9118;DHT22;4594;50.994;7.126;2023-08-01T04:58:43;18.60;77.60
9118;DHT22;4594;50.994;7.126;2023-08-01T05:01:09;18.60;77.40
9118;DHT22;4594;50.994;7.126;2023-08-01T05:03:34;18.50;77.30
9118;DHT22;4594;50.994;7.126;2023-08-01T05:06:00;18.50;77.50
9118;DHT22;4594;50.994;7.126;2023-08-01T05:08:26;18.50;77.60
9118;DHT22;4594;50.994;7.126;2023-08-01T05:10:51;18.50;77.60
9118;DHT22;4594;50.994;7.126;2023-08-01T05:13:17;18.50;77.70
9118;DHT22;4594;50.994;7.126;2023-08-01T05:15:47;18.50;77.70
9118;DHT22;4594;50.994;7.126;2023-08-01T05:18:13;18.50;77.40
9118;DHT22;4594;50.994;7.126;2023-08-01T05:20:41;18.50;77.80
9118;DHT22;4594;50.994;7.126;2023-08-01T05:23:06;18.40;77.80
9118;DHT22;4594;50.994;7.126;2023-08-01T05:25:32;18.50;78.00
9118;DHT22;4594;50.994;7.126;2023-08-01T05:27:58;18.60;78.20
9118;DHT22;4594;50.994;7.126;2023-08-01T05:30:24;18.50;78.00
9118;DHT22;4594;50.994;7.126;2023-08-01T05:32:50;18.50;78.10
9118;DHT22;4594;50.994;7.126;2023-08-01T05:35:17;18.50;78.30
9118;DHT22;4594;50.994;7.126;2023-08-01T05:37:43;18.50;78.00
9118;DHT22;4594;50.994;7.126;2023-08-01T05:40:09;18.60;78.00
9118;DHT22;4594;50.994;7.126;2023-08-01T05:42:35;18.60;77.90
9118;DHT22;4594;50.994;7.126;2023-08-01T05:45:01;18.60;78.50
9118;DHT22;4594;50.994;7.126;2023-08-01T05:47:27;18.60;79.80
9118;DHT22;4594;50.994;7.126;2023-08-01T05:49:52;18.70;80.50
9118;DHT22;4594;50.994;7.126;2023-08-01T05:52:18;18.70;81.00
9118;DHT22;4594;50.994;7.126;2023-08-01T05:54:44;18.80;80.90
9118;DHT22;4594;50.994;7.126;2023-08-01T05:57:09;18.90;80.60
9118;DHT22;4594;50.994;7.126;2023-08-01T05:59:35;19.00;80.40
9118;DHT22;4594;50.994;7.126;2023-08-01T06:02:01;19.00;80.10
9118;DHT22;4594;50.994;7.126;2023-08-01T06:04:28;19.00;79.70
9118;DHT22;4594;50.994;7.126;2023-08-01T06:06:54;19.10;79.50
9118;DHT22;4594;50.994;7.126;2023-08-01T06:09:19;19.10;78.80
9118;DHT22;4594;50.994;7.126;2023-08-01T06:11:45;19.10;78.40
9118;DHT22;4594;50.994;7.126;2023-08-01T06:14:11;19.10;78.10
9118;DHT22;4594;50.994;7.126;2023-08-01T06:16:36;19.10;77.80
9118;DHT22;4594;50.994;7.126;2023-08-01T06:19:02;19.10;77.70
9118;DHT22;4594;50.994;7.126;2023-08-01T06:21:28;19.10;77.80
9118;DHT22;4594;50.994;7.126;2023-08-01T06:23:54;19.10;77.90
9118;DHT22;4594;50.994;7.126;2023-08-01T06:26:19;19.10;77.80
9118;DHT22;4594;50.994;7.126;2023-08-01T06:28:45;19.10;77.80
9118;DHT22;4594;50.994;7.126;2023-08-01T06:31:11;19.10;77.80
9118;DHT22;4594;50.994;7.126;2023-08-01T06:33:36;19.10;77.90
9118;DHT22;4594;50.994;7.126;2023-08-01T06:36:02;19.10;78.00
9118;DHT22;4594;50.994;7.126;2023-08-01T06:38:28;19.10;78.10
9118;DHT22;4594;50.994;7.126;2023-08-01T06:40:54;19.10;78.40
9118;DHT22;4594;50.994;7.126;2023-08-01T06:43:19;19.20;78.60
9118;DHT22;4594;50.994;7.126;2023-08-01T06:45:45;19.20;79.00
9118;DHT22;4594;50.994;7.126;2023-08-01T06:48:10;19.30;78.70
9118;DHT22;4594;50.994;7.126;2023-08-01T06:50:36;19.20;78.60
9118;DHT22;4594;50.994;7.126;2023-08-01T06:53:02;19.30;78.70
9118;DHT22;4594;50.994;7.126;2023-08-01T06:55:27;19.30;78.90
9118;DHT22;4594;50.994;7.126;2023-08-01T06:57:53;19.30;78.90
9118;DHT22;4594;50.994;7.126;2023-08-01T07:00:19;19.30;78.90
9118;DHT22;4594;50.994;7.126;2023-08-01T07:02:45;19.40;78.80
9118;DHT22;4594;50.994;7.126;2023-08-01T07:05:10;19.50;79.50
9118;DHT22;4594;50.994;7.126;2023-08-01T07:07:36;19.50;80.30
9118;DHT22;4594;50.994;7.126;2023-08-01T07:10:01;19.50;80.40
9118;DHT22;4594;50.994;7.126;2023-08-01T07:12:27;19.40;80.00
9118;DHT22;4594;50.994;7.126;2023-08-01T07:14:53;19.70;80.10
9118;DHT22;4594;50.994;7.126;2023-08-01T07:17:19;19.70;79.60
9118;DHT22;4594;50.994;7.126;2023-08-01T07:19:44;19.70;79.20
9118;DHT22;4594;50.994;7.126;2023-08-01T07:22:10;19.80;78.80
9118;DHT22;4594;50.994;7.126;2023-08-01T07:24:36;19.80;78.10
9118;DHT22;4594;50.994;7.126;2023-08-01T07:27:01;19.80;77.70
9118;DHT22;4594;50.994;7.126;2023-08-01T07:29:27;19.80;77.40
9118;DHT22;4594;50.994;7.126;2023-08-01T07:31:53;19.80;77.20
9118;DHT22;4594;50.994;7.126;2023-08-01T07:34:18;19.80;76.70
9118;DHT22;4594;50.994;7.126;2023-08-01T07:36:47;19.80;76.50
9118;DHT22;4594;50.994;7.126;2023-08-01T07:39:17;19.80;76.40
9118;DHT22;4594;50.994;7.126;2023-08-01T07:41:42;19.80;77.40
9118;DHT22;4594;50.994;7.126;2023-08-01T07:44:08;19.90;79.50
9118;DHT22;4594;50.994;7.126;2023-08-01T07:46:33;20.00;82.70
9118;DHT22;4594;50.994;7.126;2023-08-01T07:48:59;20.20;85.90
9118;DHT22;4594;50.994;7.126;2023-08-01T07:51:25;20.40;88.60
9118;DHT22;4594;50.994;7.126;2023-08-01T07:53:53;20.70;91.00
9118;DHT22;4594;50.994;7.126;2023-08-01T07:56:19;21.10;92.60
9118;DHT22;4594;50.994;7.126;2023-08-01T07:58:45;21.60;93.90
9118;DHT22;4594;50.994;7.126;2023-08-01T08:01:11;22.00;93.20
9118;DHT22;4594;50.994;7.126;2023-08-01T08:03:37;22.40;91.40
9118;DHT22;4594;50.994;7.126;2023-08-01T08:06:03;22.60;87.00
9118;DHT22;4594;50.994;7.126;2023-08-01T08:08:29;22.70;83.20
9118;DHT22;4594;50.994;7.126;2023-08-01T08:10:55;22.80;80.00
9118;DHT22;4594;50.994;7.126;2023-08-01T08:13:21;22.80;75.80
9118;DHT22;4594;50.994;7.126;2023-08-01T08:15:47;22.70;73.50
9118;DHT22;4594;50.994;7.126;2023-08-01T08:18:13;22.70;73.60
9118;DHT22;4594;50.994;7.126;2023-08-01T08:20:44;22.60;73.50
9118;DHT22;4594;50.994;7.126;2023-08-01T08:23:11;22.50;75.00
9118;DHT22;4594;50.994;7.126;2023-08-01T08:25:40;22.50;77.80
9118;DHT22;4594;50.994;7.126;2023-08-01T08:28:06;22.60;80.40
9118;DHT22;4594;50.994;7.126;2023-08-01T08:30:32;22.60;80.20
9118;DHT22;4594;50.994;7.126;2023-08-01T08:32:58;22.60;78.50
9118;DHT22;4594;50.994;7.126;2023-08-01T08:35:30;22.70;76.90
9118;DHT22;4594;50.994;7.126;2023-08-01T08:37:58;22.70;75.50
9118;DHT22;4594;50.994;7.126;2023-08-01T08:40:25;22.70;73.90
9118;DHT22;4594;50.994;7.126;2023-08-01T08:42:52;22.70;73.30
9118;DHT22;4594;50.994;7.126;2023-08-01T08:45:19;22.70;75.40
9118;DHT22;4594;50.994;7.126;2023-08-01T08:47:51;22.80;81.80
9118;DHT22;4594;50.994;7.126;2023-08-01T08:50:21;23.10;84.20
9118;DHT22;4594;50.994;7.126;2023-08-01T08:52:48;23.30;83.10
9118;DHT22;4594;50.994;7.126;2023-08-01T08:55:13;23.50;78.20
9118;DHT22;4594;50.994;7.126;2023-08-01T08:57:40;23.60;75.60
9118;DHT22;4594;50.994;7.126;2023-08-01T09:00:07;23.60;73.80
9118;DHT22;4594;50.994;7.126;2023-08-01T09:02:33;23.60;72.40
9118;DHT22;4594;50.994;7.126;2023-08-01T09:04:59;23.60;73.60
9118;DHT22;4594;50.994;7.126;2023-08-01T09:07:29;23.70;77.80
9118;DHT22;4594;50.994;7.126;2023-08-01T09:09:59;23.80;79.80
9118;DHT22;4594;50.994;7.126;2023-08-01T09:12:25;24.10;81.20
9118;DHT22;4594;50.994;7.126;2023-08-01T09:14:52;24.30;78.30
9118;DHT22;4594;50.994;7.126;2023-08-01T09:17:22;24.40;74.50
9118;DHT22;4594;50.994;7.126;2023-08-01T09:19:48;24.50;71.30
9118;DHT22;4594;50.994;7.126;2023-08-01T09:22:14;24.50;69.10
9118;DHT22;4594;50.994;7.126;2023-08-01T09:24:50;24.40;67.30
9118;DHT22;4594;50.994;7.126;2023-08-01T09:27:17;24.30;62.70
9118;DHT22;4594;50.994;7.126;2023-08-01T09:29:43;24.90;69.40
9118;DHT22;4594;50.994;7.126;2023-08-01T09:32:13;25.10;74.00
9118;DHT22;4594;50.994;7.126;2023-08-01T09:34:40;24.50;74.90
9118;DHT22;4594;50.994;7.126;2023-08-01T09:37:06;24.70;77.70
9118;DHT22;4594;50.994;7.126;2023-08-01T09:39:33;24.90;75.70
9118;DHT22;4594;50.994;7.126;2023-08-01T09:42:01;25.00;73.20
9118;DHT22;4594;50.994;7.126;2023-08-01T09:44:29;25.00;69.60
9118;DHT22;4594;50.994;7.126;2023-08-01T09:47:05;25.10;67.30
9118;DHT22;4594;50.994;7.126;2023-08-01T09:49:33;25.00;62.20
9118;DHT22;4594;50.994;7.126;2023-08-01T09:51:59;24.90;64.90
9118;DHT22;4594;50.994;7.126;2023-08-01T09:54:26;24.80;65.50
9118;DHT22;4594;50.994;7.126;2023-08-01T09:56:54;24.70;65.10
9118;DHT22;4594;50.994;7.126;2023-08-01T09:59:20;24.70;65.10
9118;DHT22;4594;50.994;7.126;2023-08-01T10:01:52;24.70;67.00
9118;DHT22;4594;50.994;7.126;2023-08-01T10:04:29;24.70;65.50
9118;DHT22;4594;50.994;7.126;2023-08-01T10:07:01;24.80;65.90
9118;DHT22;4594;50.994;7.126;2023-08-01T10:09:32;24.90;69.00
9118;DHT22;4594;50.994;7.126;2023-08-01T10:12:01;25.10;71.70
9118;DHT22;4594;50.994;7.126;2023-08-01T10:14:28;25.20;72.80
9118;DHT22;4594;50.994;7.126;2023-08-01T10:16:54;25.40;72.50
9118;DHT22;4594;50.994;7.126;2023-08-01T10:19:21;25.50;69.80
9118;DHT22;4594;50.994;7.126;2023-08-01T10:21:48;25.60;71.50
9118;DHT22;4594;50.994;7.126;2023-08-01T10:24:14;25.70;71.30
9118;DHT22;4594;50.994;7.126;2023-08-01T10:26:44;25.80;70.70
9118;DHT22;4594;50.994;7.126;2023-08-01T10:29:11;25.80;67.40
9118;DHT22;4594;50.994;7.126;2023-08-01T10:31:37;26.00;70.60
9118;DHT22;4594;50.994;7.126;2023-08-01T10:34:12;26.10;72.60
9118;DHT22;4594;50.994;7.126;2023-08-01T10:36:38;26.20;72.60
9118;DHT22;4594;50.994;7.126;2023-08-01T10:39:04;26.50;72.50
9118;DHT22;4594;50.994;7.126;2023-08-01T10:44:07;26.80;68.20
9118;DHT22;4594;50.994;7.126;2023-08-01T10:46:57;26.90;63.90
9118;DHT22;4594;50.994;7.126;2023-08-01T10:49:36;27.10;67.10
9118;DHT22;4594;50.994;7.126;2023-08-01T10:52:04;27.30;67.00
9118;DHT22;4594;50.994;7.126;2023-08-01T10:54:57;27.50;74.70
9118;DHT22;4594;50.994;7.126;2023-08-01T10:57:26;27.80;71.00
9118;DHT22;4594;50.994;7.126;2023-08-01T10:59:52;28.00;70.20
9118;DHT22;4594;50.994;7.126;2023-08-01T11:02:25;28.10;66.80
9118;DHT22;4594;50.994;7.126;2023-08-01T11:04:59;28.10;60.80
9118;DHT22;4594;50.994;7.126;2023-08-01T11:07:27;28.10;59.50
9118;DHT22;4594;50.994;7.126;2023-08-01T11:12:38;28.10;58.30
9118;DHT22;4594;50.994;7.126;2023-08-01T11:15:07;28.10;59.70
9118;DHT22;4594;50.994;7.126;2023-08-01T11:17:41;28.10;61.70
9118;DHT22;4594;50.994;7.126;2023-08-01T11:20:10;28.10;60.30
9118;DHT22;4594;50.994;7.126;2023-08-01T11:22:38;28.10;59.90
9118;DHT22;4594;50.994;7.126;2023-08-01T11:25:14;28.00;59.30
9118;DHT22;4594;50.994;7.126;2023-08-01T11:27:40;27.90;59.40
9118;DHT22;4594;50.994;7.126;2023-08-01T11:30:06;27.80;59.20
9118;DHT22;4594;50.994;7.126;2023-08-01T11:32:33;27.80;59.90
9118;DHT22;4594;50.994;7.126;2023-08-01T11:35:00;27.80;61.90
9118;DHT22;4594;50.994;7.126;2023-08-01T11:37:26;27.80;61.50
9118;DHT22;4594;50.994;7.126;2023-08-01T11:39:52;27.90;61.10
9118;DHT22;4594;50.994;7.126;2023-08-01T11:42:18;27.90;62.20
9118;DHT22;4594;50.994;7.126;2023-08-01T11:44:44;28.00;64.80
9118;DHT22;4594;50.994;7.126;2023-08-01T11:47:14;28.10;64.00
9118;DHT22;4594;50.994;7.126;2023-08-01T11:49:48;28.20;59.60
9118;DHT22;4594;50.994;7.126;2023-08-01T11:52:25;28.20;58.20
9118;DHT22;4594;50.994;7.126;2023-08-01T11:54:52;28.20;55.70
9118;DHT22;4594;50.994;7.126;2023-08-01T11:57:22;28.20;59.00
9118;DHT22;4594;50.994;7.126;2023-08-01T11:59:49;28.20;58.30
9118;DHT22;4594;50.994;7.126;2023-08-01T12:02:27;28.10;57.50
9118;DHT22;4594;50.994;7.126;2023-08-01T12:04:55;28.00;54.70
9118;DHT22;4594;50.994;7.126;2023-08-01T12:07:25;27.90;56.80
9118;DHT22;4594;50.994;7.126;2023-08-01T12:10:00;27.80;54.90
9118;DHT22;4594;50.994;7.126;2023-08-01T12:12:27;27.70;53.80
9118;DHT22;4594;50.994;7.126;2023-08-01T12:14:53;27.60;56.30
9118;DHT22;4594;50.994;7.126;2023-08-01T12:17:20;27.40;55.90
9118;DHT22;4594;50.994;7.126;2023-08-01T12:19:45;27.30;55.70
9118;DHT22;4594;50.994;7.126;2023-08-01T12:22:11;27.20;55.60
9118;DHT22;4594;50.994;7.126;2023-08-01T12:24:38;27.00;54.90
9118;DHT22;4594;50.994;7.126;2023-08-01T12:27:08;26.90;54.90
9118;DHT22;4594;50.994;7.126;2023-08-01T12:29:34;26.70;53.60
9118;DHT22;4594;50.994;7.126;2023-08-01T12:32:02;26.70;55.70
9118;DHT22;4594;50.994;7.126;2023-08-01T12:34:29;26.60;56.10
9118;DHT22;4594;50.994;7.126;2023-08-01T12:36:54;26.60;57.10
9118;DHT22;4594;50.994;7.126;2023-08-01T12:39:20;26.60;56.80
9118;DHT22;4594;50.994;7.126;2023-08-01T12:41:46;26.50;56.50
9118;DHT22;4594;50.994;7.126;2023-08-01T12:44:12;26.40;56.60
9118;DHT22;4594;50.994;7.126;2023-08-01T12:46:41;26.40;56.70
9118;DHT22;4594;50.994;7.126;2023-08-01T12:49:07;26.20;56.50
9118;DHT22;4594;50.994;7.126;2023-08-01T12:51:32;26.10;56.60
9118;DHT22;4594;50.994;7.126;2023-08-01T12:53:58;26.00;56.40
9118;DHT22;4594;50.994;7.126;2023-08-01T12:56:24;25.90;56.50
9118;DHT22;4594;50.994;7.126;2023-08-01T12:58:49;25.80;56.20
9118;DHT22;4594;50.994;7.126;2023-08-01T13:01:15;25.60;56.10
9118;DHT22;4594;50.994;7.126;2023-08-01T13:03:41;25.30;56.00
9118;DHT22;4594;50.994;7.126;2023-08-01T13:06:09;25.20;56.40
9118;DHT22;4594;50.994;7.126;2023-08-01T13:08:36;25.00;56.80
9118;DHT22;4594;50.994;7.126;2023-08-01T13:11:01;24.80;57.50
9118;DHT22;4594;50.994;7.126;2023-08-01T13:13:35;24.70;58.80
9118;DHT22;4594;50.994;7.126;2023-08-01T13:16:00;24.60;59.70
9118;DHT22;4594;50.994;7.126;2023-08-01T13:18:26;24.60;60.90
9118;DHT22;4594;50.994;7.126;2023-08-01T13:20:52;24.50;61.60
9118;DHT22;4594;50.994;7.126;2023-08-01T13:23:17;24.50;62.80
9118;DHT22;4594;50.994;7.126;2023-08-01T13:25:43;24.60;64.30
9118;DHT22;4594;50.994;7.126;2023-08-01T13:28:11;24.60;64.80
9118;DHT22;4594;50.994;7.126;2023-08-01T13:30:37;24.70;65.20
9118;DHT22;4594;50.994;7.126;2023-08-01T13:33:03;24.70;65.30
9118;DHT22;4594;50.994;7.126;2023-08-01T13:35:28;24.80;65.70
9118;DHT22;4594;50.994;7.126;2023-08-01T13:37:54;24.90;65.50
9118;DHT22;4594;50.994;7.126;2023-08-01T13:40:19;24.90;64.30
9118;DHT22;4594;50.994;7.126;2023-08-01T13:42:45;24.90;63.90
9118;DHT22;4594;50.994;7.126;2023-08-01T13:45:11;24.90;63.50
9118;DHT22;4594;50.994;7.126;2023-08-01T13:47:37;24.80;63.00
9118;DHT22;4594;50.994;7.126;2023-08-01T13:50:02;24.70;62.90
9118;DHT22;4594;50.994;7.126;2023-08-01T13:52:28;24.70;63.10
9118;DHT22;4594;50.994;7.126;2023-08-01T13:54:54;24.70;62.90
9118;DHT22;4594;50.994;7.126;2023-08-01T13:57:20;24.70;63.10
9118;DHT22;4594;50.994;7.126;2023-08-01T13:59:45;24.60;62.90
9118;DHT22;4594;50.994;7.126;2023-08-01T14:02:11;24.60;62.70
9118;DHT22;4594;50.994;7.126;2023-08-01T14:04:37;24.50;62.90
9118;DHT22;4594;50.994;7.126;2023-08-01T14:07:02;24.50;62.70
9118;DHT22;4594;50.994;7.126;2023-08-01T14:09:28;24.50;62.10
9118;DHT22;4594;50.994;7.126;2023-08-01T14:11:57;24.40;62.00
9118;DHT22;4594;50.994;7.126;2023-08-01T14:14:23;24.30;62.70
9118;DHT22;4594;50.994;7.126;2023-08-01T14:16:48;24.30;62.70
9118;DHT22;4594;50.994;7.126;2023-08-01T14:19:14;24.30;62.50
9118;DHT22;4594;50.994;7.126;2023-08-01T14:21:40;24.30;62.70
9118;DHT22;4594;50.994;7.126;2023-08-01T14:24:05;24.30;63.00
9118;DHT22;4594;50.994;7.126;2023-08-01T14:26:31;24.30;62.80
9118;DHT22;4594;50.994;7.126;2023-08-01T14:28:57;24.20;61.50
9118;DHT22;4594;50.994;7.126;2023-08-01T14:31:22;24.20;61.20
9118;DHT22;4594;50.994;7.126;2023-08-01T14:33:48;24.20;61.50
9118;DHT22;4594;50.994;7.126;2023-08-01T14:36:14;24.10;61.10
9118;DHT22;4594;50.994;7.126;2023-08-01T14:38:40;24.00;61.00
9118;DHT22;4594;50.994;7.126;2023-08-01T14:41:06;23.90;60.70
9118;DHT22;4594;50.994;7.126;2023-08-01T14:43:32;23.80;60.40
9118;DHT22;4594;50.994;7.126;2023-08-01T14:45:59;23.70;60.10
9118;DHT22;4594;50.994;7.126;2023-08-01T14:48:25;23.50;59.80
9118;DHT22;4594;50.994;7.126;2023-08-01T14:50:52;23.40;59.50
9118;DHT22;4594;50.994;7.126;2023-08-01T14:53:18;23.20;59.40
9118;DHT22;4594;50.994;7.126;2023-08-01T14:55:43;23.00;59.70
9118;DHT22;4594;50.994;7.126;2023-08-01T14:58:09;22.90;60.50
9118;DHT22;4594;50.994;7.126;2023-08-01T15:00:35;22.80;61.80
9118;DHT22;4594;50.994;7.126;2023-08-01T15:03:01;22.80;63.20
9118;DHT22;4594;50.994;7.126;2023-08-01T15:05:27;22.70;63.60
9118;DHT22;4594;50.994;7.126;2023-08-01T15:07:53;22.70;64.10
9118;DHT22;4594;50.994;7.126;2023-08-01T15:10:18;22.70;64.80
9118;DHT22;4594;50.994;7.126;2023-08-01T15:12:44;22.60;64.80
9118;DHT22;4594;50.994;7.126;2023-08-01T15:15:10;22.70;64.80
9118;DHT22;4594;50.994;7.126;2023-08-01T15:17:36;22.60;65.00
9118;DHT22;4594;50.994;7.126;2023-08-01T15:20:02;22.60;65.50
9118;DHT22;4594;50.994;7.126;2023-08-01T15:22:28;22.60;66.30
9118;DHT22;4594;50.994;7.126;2023-08-01T15:24:54;22.60;66.90
9118;DHT22;4594;50.994;7.126;2023-08-01T15:27:19;22.60;67.20
9118;DHT22;4594;50.994;7.126;2023-08-01T15:29:45;22.60;66.90
9118;DHT22;4594;50.994;7.126;2023-08-01T15:32:12;22.60;66.90
9118;DHT22;4594;50.994;7.126;2023-08-01T15:34:38;22.60;67.20
9118;DHT22;4594;50.994;7.126;2023-08-01T15:37:07;22.70;66.70
9118;DHT22;4594;50.994;7.126;2023-08-01T15:39:34;22.70;65.30
9118;DHT22;4594;50.994;7.126;2023-08-01T15:42:01;22.70;66.00
9118;DHT22;4594;50.994;7.126;2023-08-01T15:44:27;22.70;65.50
9118;DHT22;4594;50.994;7.126;2023-08-01T15:46:53;22.70;65.00
9118;DHT22;4594;50.994;7.126;2023-08-01T15:49:18;22.60;64.50
9118;DHT22;4594;50.994;7.126;2023-08-01T15:51:44;22.60;63.40
9118;DHT22;4594;50.994;7.126;2023-08-01T15:54:10;22.50;63.30
9118;DHT22;4594;50.994;7.126;2023-08-01T15:56:37;22.40;63.00
9118;DHT22;4594;50.994;7.126;2023-08-01T15:59:03;22.40;63.10
9118;DHT22;4594;50.994;7.126;2023-08-01T16:01:29;22.30;62.90
9118;DHT22;4594;50.994;7.126;2023-08-01T16:03:55;22.30;63.20